PWSweather.com
Personal Weather Stations
Station Observations
BARMORENO
El Ranal, Torre Del CampoES 23640

El RanalTorre Del CampoES 23640

Lat: 37.7683675, Lon: -3.9027072

Elevation: 2198.162

Station Type: PCE-FWS 20

http://www.bartolomemoreno.com/tiempo

Latest ConditionsUpdated 10:10:05 AM GMT+01:01 Thursday, Dec 12, 2019
Currently Today's Max Today's Min Today's Average
Temperature 46.6°F8.1°C 46.6°F8.1°C 41.9°F5.5°C 43.5°F6.4°C
Dew Point 38.7°F3.7°C 42.0°F5.6°C 36.4°F2.4°C 39.0°F3.9°C
Winds 3.4 mph NW5.5 kmh NW 8.0 mph -12.9 kmh - - 4.2 mph 6.8 kmh
Wind Gusts 7.6 mph12.2 kmh 14.5 mph23.3 kmh - -
Humidity 74% 91% 74% 84%
Pressure 30.31 in1026.4 mb 30.34 in1027.4 mb 30.28 in1025.4 mb -
Hour Temp Dew Point Humidity Winds Wind Gusts Pressure Precip Precip Rate Daily Precip Total
10:10 AM 46.6°F8.1°C 38.7°F3.7°C 74% 3.4 mph NW5.5 kmh NW 7.6 mph12.2 kmh 30.31 in1026.4 mb 0.00 in0.0 mm 0.00 in0.0 mm 0.00 in0.0 mm
10:05 AM 46.4°F8.0°C 38.9°F3.8°C 75% 3.4 mph W5.5 kmh W 6.9 mph11.1 kmh 30.31 in1026.4 mb 0.00 in0.0 mm 0.00 in0.0 mm 0.00 in0.0 mm
10:00 AM 46.0°F7.8°C 38.6°F3.7°C 75% 4.5 mph WSW7.2 kmh WSW 8.3 mph13.4 kmh 30.32 in1026.8 mb 0.00 in0.0 mm 0.00 in0.0 mm 0.00 in0.0 mm
09:55 AM 45.7°F7.6°C 38.2°F3.4°C 75% 4.5 mph WSW7.2 kmh WSW 8.3 mph13.4 kmh 30.31 in1026.4 mb 0.00 in0.0 mm 0.00 in0.0 mm 0.00 in0.0 mm
09:50 AM 45.3°F7.4°C 38.2°F3.4°C 76% 4.2 mph WSW6.8 kmh WSW 8.3 mph13.4 kmh 30.31 in1026.4 mb 0.00 in0.0 mm 0.00 in0.0 mm 0.00 in0.0 mm
09:45 AM 45.0°F7.2°C 37.9°F3.3°C 76% 4.7 mph WSW7.6 kmh WSW 8.3 mph13.4 kmh 30.31 in1026.4 mb 0.00 in0.0 mm 0.00 in0.0 mm 0.00 in0.0 mm
09:40 AM 44.8°F7.1°C 38.0°F3.3°C 77% 4.6 mph SW7.4 kmh SW 8.3 mph13.4 kmh 30.31 in1026.4 mb 0.00 in0.0 mm 0.00 in0.0 mm 0.00 in0.0 mm
09:35 AM 44.4°F6.9°C 38.0°F3.3°C 78% 4.4 mph SW7.1 kmh SW 8.3 mph13.4 kmh 30.31 in1026.4 mb 0.00 in0.0 mm 0.00 in0.0 mm 0.00 in0.0 mm
09:30 AM 44.4°F6.9°C 38.3°F3.5°C 79% 4.5 mph SW7.2 kmh SW 8.3 mph13.4 kmh 30.30 in1026.1 mb 0.00 in0.0 mm 0.00 in0.0 mm 0.00 in0.0 mm
09:25 AM 43.7°F6.5°C 37.6°F3.1°C 79% 4.6 mph SW7.4 kmh SW 8.3 mph13.4 kmh 30.30 in1026.1 mb 0.00 in0.0 mm 0.00 in0.0 mm 0.00 in0.0 mm
09:20 AM 43.5°F6.4°C 37.4°F3.0°C 79% 4.7 mph SW7.6 kmh SW 8.3 mph13.4 kmh 30.32 in1026.8 mb 0.00 in0.0 mm 0.00 in0.0 mm 0.00 in0.0 mm
09:15 AM 43.3°F6.3°C 37.3°F2.9°C 79% 4.8 mph WSW7.7 kmh WSW 8.3 mph13.4 kmh 30.31 in1026.4 mb 0.00 in0.0 mm 0.00 in0.0 mm 0.00 in0.0 mm
09:10 AM 43.3°F6.3°C 36.9°F2.7°C 78% 4.4 mph WSW7.1 kmh WSW 9.2 mph14.8 kmh 30.32 in1026.8 mb 0.00 in0.0 mm 0.00 in0.0 mm 0.00 in0.0 mm
09:05 AM 43.3°F6.3°C 36.9°F2.7°C 78% 4.9 mph SW7.9 kmh SW 9.2 mph14.8 kmh 30.32 in1026.8 mb 0.00 in0.0 mm 0.00 in0.0 mm 0.00 in0.0 mm
09:00 AM 43.5°F6.4°C 37.1°F2.8°C 78% 5.6 mph SW9.0 kmh SW 9.2 mph14.8 kmh 30.31 in1026.4 mb 0.00 in0.0 mm 0.00 in0.0 mm 0.00 in0.0 mm
08:55 AM 43.5°F6.4°C 37.1°F2.8°C 78% 6.0 mph SW9.7 kmh SW 9.2 mph14.8 kmh 30.32 in1026.8 mb 0.00 in0.0 mm 0.00 in0.0 mm 0.00 in0.0 mm
08:50 AM 43.3°F6.3°C 36.9°F2.7°C 78% 5.7 mph WSW9.2 kmh WSW 9.2 mph14.8 kmh 30.32 in1026.8 mb 0.00 in0.0 mm 0.00 in0.0 mm 0.00 in0.0 mm
08:45 AM 43.2°F6.2°C 37.1°F2.8°C 79% 5.7 mph SW9.2 kmh SW 9.8 mph15.8 kmh 30.31 in1026.4 mb 0.00 in0.0 mm 0.00 in0.0 mm 0.00 in0.0 mm
08:40 AM 43.0°F6.1°C 36.6°F2.6°C 78% 5.6 mph SW9.0 kmh SW 9.8 mph15.8 kmh 30.32 in1026.8 mb 0.00 in0.0 mm 0.00 in0.0 mm 0.00 in0.0 mm
08:35 AM 42.8°F6.0°C 36.4°F2.4°C 78% 4.4 mph SW7.1 kmh SW 9.8 mph15.8 kmh 30.32 in1026.8 mb 0.00 in0.0 mm 0.00 in0.0 mm 0.00 in0.0 mm
08:30 AM 42.8°F6.0°C 36.4°F2.4°C 78% 4.7 mph SW7.6 kmh SW 10.7 mph17.2 kmh 30.32 in1026.8 mb 0.00 in0.0 mm 0.00 in0.0 mm 0.00 in0.0 mm
08:25 AM 42.6°F5.9°C 36.9°F2.7°C 80% 6.3 mph SW10.1 kmh SW 10.7 mph17.2 kmh 30.32 in1026.8 mb 0.00 in0.0 mm 0.00 in0.0 mm 0.00 in0.0 mm
08:20 AM 42.4°F5.8°C 36.7°F2.6°C 80% 7.3 mph SW11.7 kmh SW 12.1 mph19.5 kmh 30.32 in1026.8 mb 0.00 in0.0 mm 0.00 in0.0 mm 0.00 in0.0 mm
08:15 AM 42.3°F5.7°C 36.9°F2.7°C 81% 7.8 mph SW12.6 kmh SW 13.0 mph20.9 kmh 30.31 in1026.4 mb 0.00 in0.0 mm 0.00 in0.0 mm 0.00 in0.0 mm
08:10 AM 41.9°F5.5°C 36.5°F2.5°C 81% 7.8 mph SW12.6 kmh SW 13.0 mph20.9 kmh 30.32 in1026.8 mb 0.00 in0.0 mm 0.00 in0.0 mm 0.00 in0.0 mm
08:05 AM 41.9°F5.5°C 36.5°F2.5°C 81% 8.0 mph SW12.9 kmh SW 14.5 mph23.3 kmh 30.32 in1026.8 mb 0.00 in0.0 mm 0.00 in0.0 mm 0.00 in0.0 mm
07:55 AM 42.1°F5.6°C 36.7°F2.6°C 81% 6.7 mph W10.8 kmh W 11.4 mph18.3 kmh 30.31 in1026.4 mb 0.00 in0.0 mm 0.00 in0.0 mm 0.00 in0.0 mm
07:50 AM 42.1°F5.6°C 36.7°F2.6°C 81% 5.4 mph WSW8.7 kmh WSW 11.4 mph18.3 kmh 30.32 in1026.8 mb 0.00 in0.0 mm 0.00 in0.0 mm 0.00 in0.0 mm
07:45 AM 42.1°F5.6°C 36.4°F2.4°C 80% 4.6 mph NW7.4 kmh NW 13.6 mph21.9 kmh 30.31 in1026.4 mb 0.00 in0.0 mm 0.00 in0.0 mm 0.00 in0.0 mm
07:40 AM 42.3°F5.7°C 36.5°F2.5°C 80% 5.2 mph NW8.4 kmh NW 13.6 mph21.9 kmh 30.31 in1026.4 mb 0.00 in0.0 mm 0.00 in0.0 mm 0.00 in0.0 mm
07:35 AM 42.3°F5.7°C 36.5°F2.5°C 80% 7.0 mph W11.3 kmh W 13.6 mph21.9 kmh 30.29 in1025.7 mb 0.00 in0.0 mm 0.00 in0.0 mm 0.00 in0.0 mm
07:30 AM 42.4°F5.8°C 36.7°F2.6°C 80% 7.3 mph WSW11.7 kmh WSW 13.6 mph21.9 kmh 30.29 in1025.7 mb 0.00 in0.0 mm 0.00 in0.0 mm 0.00 in0.0 mm
07:25 AM 42.4°F5.8°C 37.0°F2.8°C 81% 6.2 mph WSW10.0 kmh WSW 13.6 mph21.9 kmh 30.29 in1025.7 mb 0.00 in0.0 mm 0.00 in0.0 mm 0.00 in0.0 mm
07:20 AM 42.4°F5.8°C 37.0°F2.8°C 81% 6.1 mph WSW9.8 kmh WSW 13.6 mph21.9 kmh 30.28 in1025.4 mb 0.00 in0.0 mm 0.00 in0.0 mm 0.00 in0.0 mm
07:15 AM 42.4°F5.8°C 37.0°F2.8°C 81% 7.1 mph WSW11.4 kmh WSW 14.5 mph23.3 kmh 30.28 in1025.4 mb 0.00 in0.0 mm 0.00 in0.0 mm 0.00 in0.0 mm
07:10 AM 42.4°F5.8°C 37.3°F2.9°C 82% 6.7 mph WSW10.8 kmh WSW 14.5 mph23.3 kmh 30.29 in1025.7 mb 0.00 in0.0 mm 0.00 in0.0 mm 0.00 in0.0 mm
07:05 AM 42.4°F5.8°C 37.7°F3.2°C 83% 6.4 mph WSW10.3 kmh WSW 13.0 mph20.9 kmh 30.29 in1025.7 mb 0.00 in0.0 mm 0.00 in0.0 mm 0.00 in0.0 mm
06:55 AM 42.3°F5.7°C 37.5°F3.1°C 83% 5.3 mph WSW8.5 kmh WSW 13.0 mph20.9 kmh 30.28 in1025.4 mb 0.00 in0.0 mm 0.00 in0.0 mm 0.00 in0.0 mm
06:50 AM 42.3°F5.7°C 37.5°F3.1°C 83% 5.4 mph SW8.7 kmh SW 9.8 mph15.8 kmh 30.29 in1025.7 mb 0.00 in0.0 mm 0.00 in0.0 mm 0.00 in0.0 mm
06:45 AM 42.3°F5.7°C 37.5°F3.1°C 83% 5.1 mph SW8.2 kmh SW 9.8 mph15.8 kmh 30.28 in1025.4 mb 0.00 in0.0 mm 0.00 in0.0 mm 0.00 in0.0 mm
06:40 AM 42.3°F5.7°C 37.8°F3.2°C 84% 4.5 mph SW7.2 kmh SW 9.8 mph15.8 kmh 30.28 in1025.4 mb 0.00 in0.0 mm 0.00 in0.0 mm 0.00 in0.0 mm
06:35 AM 42.3°F5.7°C 37.8°F3.2°C 84% 5.7 mph SW9.2 kmh SW 10.7 mph17.2 kmh 30.29 in1025.7 mb 0.00 in0.0 mm 0.00 in0.0 mm 0.00 in0.0 mm
06:30 AM 42.1°F5.6°C 37.9°F3.3°C 85% 6.9 mph SW11.1 kmh SW 12.1 mph19.5 kmh 30.28 in1025.4 mb 0.00 in0.0 mm 0.00 in0.0 mm 0.00 in0.0 mm
06:25 AM 41.9°F5.5°C 37.7°F3.2°C 85% 7.1 mph SW11.4 kmh SW 12.1 mph19.5 kmh 30.28 in1025.4 mb 0.00 in0.0 mm 0.00 in0.0 mm 0.00 in0.0 mm
06:20 AM 41.9°F5.5°C 37.7°F3.2°C 85% 6.3 mph SW10.1 kmh SW 10.7 mph17.2 kmh 30.29 in1025.7 mb 0.00 in0.0 mm 0.00 in0.0 mm 0.00 in0.0 mm
06:15 AM 42.1°F5.6°C 37.9°F3.3°C 85% 4.9 mph SW7.9 kmh SW 9.2 mph14.8 kmh 30.30 in1026.1 mb 0.00 in0.0 mm 0.00 in0.0 mm 0.00 in0.0 mm
06:10 AM 42.1°F5.6°C 38.2°F3.4°C 86% 4.6 mph WSW7.4 kmh WSW 7.6 mph12.2 kmh 30.30 in1026.1 mb 0.00 in0.0 mm 0.00 in0.0 mm 0.00 in0.0 mm
06:05 AM 42.3°F5.7°C 38.4°F3.6°C 86% 5.1 mph WSW8.2 kmh WSW 8.3 mph13.4 kmh 30.30 in1026.1 mb 0.00 in0.0 mm 0.00 in0.0 mm 0.00 in0.0 mm
06:00 AM 42.3°F5.7°C 38.4°F3.6°C 86% 4.7 mph SW7.6 kmh SW 9.2 mph14.8 kmh 30.30 in1026.1 mb 0.00 in0.0 mm 0.00 in0.0 mm 0.00 in0.0 mm
05:55 AM 42.4°F5.8°C 38.6°F3.7°C 86% 3.9 mph WSW6.3 kmh WSW 9.2 mph14.8 kmh 30.31 in1026.4 mb 0.00 in0.0 mm 0.00 in0.0 mm 0.00 in0.0 mm
05:50 AM 42.6°F5.9°C 38.4°F3.6°C 85% 3.6 mph WSW5.8 kmh WSW 7.6 mph12.2 kmh 30.31 in1026.4 mb 0.00 in0.0 mm 0.00 in0.0 mm 0.00 in0.0 mm
05:45 AM 42.6°F5.9°C 38.4°F3.6°C 85% 3.7 mph WSW6.0 kmh WSW 7.6 mph12.2 kmh 30.30 in1026.1 mb 0.00 in0.0 mm 0.00 in0.0 mm 0.00 in0.0 mm
05:40 AM 42.6°F5.9°C 38.4°F3.6°C 85% 4.2 mph WSW6.8 kmh WSW 8.3 mph13.4 kmh 30.30 in1026.1 mb 0.00 in0.0 mm 0.00 in0.0 mm 0.00 in0.0 mm
05:35 AM 42.8°F6.0°C 38.3°F3.5°C 84% 5.1 mph WSW8.2 kmh WSW 8.3 mph13.4 kmh 30.30 in1026.1 mb 0.00 in0.0 mm 0.00 in0.0 mm 0.00 in0.0 mm
05:30 AM 43.0°F6.1°C 38.5°F3.6°C 84% 4.3 mph WSW6.9 kmh WSW 7.6 mph12.2 kmh 30.30 in1026.1 mb 0.00 in0.0 mm 0.00 in0.0 mm 0.00 in0.0 mm
05:25 AM 43.0°F6.1°C 38.8°F3.8°C 85% 4.0 mph WSW6.4 kmh WSW 7.6 mph12.2 kmh 30.30 in1026.1 mb 0.00 in0.0 mm 0.00 in0.0 mm 0.00 in0.0 mm
05:20 AM 43.0°F6.1°C 39.1°F3.9°C 86% 4.8 mph SW7.7 kmh SW 9.2 mph14.8 kmh 30.31 in1026.4 mb 0.00 in0.0 mm 0.00 in0.0 mm 0.00 in0.0 mm
05:15 AM 42.8°F6.0°C 39.2°F4.0°C 87% 5.2 mph SW8.4 kmh SW 9.2 mph14.8 kmh 30.31 in1026.4 mb 0.00 in0.0 mm 0.00 in0.0 mm 0.00 in0.0 mm
05:10 AM 42.8°F6.0°C 39.5°F4.2°C 88% 5.3 mph WSW8.5 kmh WSW 9.2 mph14.8 kmh 30.31 in1026.4 mb 0.00 in0.0 mm 0.00 in0.0 mm 0.00 in0.0 mm
05:05 AM 42.8°F6.0°C 39.5°F4.2°C 88% 4.6 mph WSW7.4 kmh WSW 7.6 mph12.2 kmh 30.30 in1026.1 mb 0.00 in0.0 mm 0.00 in0.0 mm 0.00 in0.0 mm
05:00 AM 42.8°F6.0°C 39.5°F4.2°C 88% 4.3 mph WSW6.9 kmh WSW 7.6 mph12.2 kmh 30.31 in1026.4 mb 0.00 in0.0 mm 0.00 in0.0 mm 0.00 in0.0 mm
04:55 AM 42.8°F6.0°C 39.5°F4.2°C 88% 4.3 mph WSW6.9 kmh WSW 9.2 mph14.8 kmh 30.31 in1026.4 mb 0.00 in0.0 mm 0.00 in0.0 mm 0.00 in0.0 mm
04:50 AM 42.8°F6.0°C 39.5°F4.2°C 88% 3.9 mph W6.3 kmh W 9.2 mph14.8 kmh 30.31 in1026.4 mb 0.00 in0.0 mm 0.00 in0.0 mm 0.00 in0.0 mm
04:45 AM 42.8°F6.0°C 39.2°F4.0°C 87% 3.5 mph SW5.6 kmh SW 6.9 mph11.1 kmh 30.31 in1026.4 mb 0.00 in0.0 mm 0.00 in0.0 mm 0.00 in0.0 mm
04:40 AM 43.0°F6.1°C 39.4°F4.1°C 87% 3.8 mph SW6.1 kmh SW 6.9 mph11.1 kmh 30.31 in1026.4 mb 0.00 in0.0 mm 0.00 in0.0 mm 0.00 in0.0 mm
04:35 AM 43.0°F6.1°C 39.4°F4.1°C 87% 4.0 mph WSW6.4 kmh WSW 6.9 mph11.1 kmh 30.31 in1026.4 mb 0.00 in0.0 mm 0.00 in0.0 mm 0.00 in0.0 mm
04:30 AM 43.0°F6.1°C 39.4°F4.1°C 87% 4.3 mph WSW6.9 kmh WSW 7.6 mph12.2 kmh 30.31 in1026.4 mb 0.00 in0.0 mm 0.00 in0.0 mm 0.00 in0.0 mm
04:25 AM 43.2°F6.2°C 39.6°F4.2°C 87% 4.1 mph WSW6.6 kmh WSW 7.6 mph12.2 kmh 30.31 in1026.4 mb 0.00 in0.0 mm 0.00 in0.0 mm 0.00 in0.0 mm
04:20 AM 43.2°F6.2°C 39.6°F4.2°C 87% 3.2 mph WSW5.1 kmh WSW 6.9 mph11.1 kmh 30.31 in1026.4 mb 0.00 in0.0 mm 0.00 in0.0 mm 0.00 in0.0 mm
04:15 AM 43.2°F6.2°C 39.6°F4.2°C 87% 2.2 mph WSW3.5 kmh WSW 5.4 mph8.7 kmh 30.32 in1026.8 mb 0.00 in0.0 mm 0.00 in0.0 mm 0.00 in0.0 mm
04:10 AM 43.2°F6.2°C 39.6°F4.2°C 87% 1.9 mph SW3.1 kmh SW 3.8 mph6.1 kmh 30.32 in1026.8 mb 0.00 in0.0 mm 0.00 in0.0 mm 0.00 in0.0 mm
04:05 AM 43.3°F6.3°C 39.7°F4.3°C 87% 2.8 mph SW4.5 kmh SW 6.0 mph9.7 kmh 30.32 in1026.8 mb 0.00 in0.0 mm 0.00 in0.0 mm 0.00 in0.0 mm
04:00 AM 43.3°F6.3°C 39.7°F4.3°C 87% 3.6 mph SW5.8 kmh SW 6.0 mph9.7 kmh 30.32 in1026.8 mb 0.00 in0.0 mm 0.00 in0.0 mm 0.00 in0.0 mm
03:55 AM 43.3°F6.3°C 39.7°F4.3°C 87% 3.4 mph SW5.5 kmh SW 6.0 mph9.7 kmh 30.32 in1026.8 mb 0.00 in0.0 mm 0.00 in0.0 mm 0.00 in0.0 mm
03:50 AM 43.3°F6.3°C 39.7°F4.3°C 87% 3.1 mph SW5.0 kmh SW 5.4 mph8.7 kmh 30.32 in1026.8 mb 0.00 in0.0 mm 0.00 in0.0 mm 0.00 in0.0 mm
03:45 AM 43.5°F6.4°C 39.9°F4.4°C 87% 3.1 mph SW5.0 kmh SW 5.4 mph8.7 kmh 30.32 in1026.8 mb 0.00 in0.0 mm 0.00 in0.0 mm 0.00 in0.0 mm
03:40 AM 43.7°F6.5°C 40.1°F4.5°C 87% 2.6 mph SW4.2 kmh SW 5.4 mph8.7 kmh 30.32 in1026.8 mb 0.00 in0.0 mm 0.00 in0.0 mm 0.00 in0.0 mm
03:35 AM 43.9°F6.6°C 40.3°F4.6°C 87% 2.0 mph SW3.2 kmh SW 3.8 mph6.1 kmh 30.32 in1026.8 mb 0.00 in0.0 mm 0.00 in0.0 mm 0.00 in0.0 mm
03:30 AM 44.2°F6.8°C 40.9°F4.9°C 88% 1.5 mph SW2.4 kmh SW 3.1 mph5.0 kmh 30.32 in1026.8 mb 0.00 in0.0 mm 0.00 in0.0 mm 0.00 in0.0 mm
03:25 AM 44.4°F6.9°C 41.1°F5.1°C 88% 1.6 mph SW2.6 kmh SW 3.8 mph6.1 kmh 30.32 in1026.8 mb 0.00 in0.0 mm 0.00 in0.0 mm 0.00 in0.0 mm
03:20 AM 44.6°F7.0°C 41.0°F5.0°C 87% 1.9 mph WSW3.1 kmh WSW 4.5 mph7.2 kmh 30.32 in1026.8 mb 0.00 in0.0 mm 0.00 in0.0 mm 0.00 in0.0 mm
03:15 AM 44.8°F7.1°C 41.2°F5.1°C 87% 1.9 mph WSW3.1 kmh WSW 4.5 mph7.2 kmh 30.32 in1026.8 mb 0.00 in0.0 mm 0.00 in0.0 mm 0.00 in0.0 mm
03:10 AM 44.8°F7.1°C 41.2°F5.1°C 87% 2.0 mph WSW3.2 kmh WSW 4.5 mph7.2 kmh 30.32 in1026.8 mb 0.00 in0.0 mm 0.00 in0.0 mm 0.00 in0.0 mm
03:05 AM 44.8°F7.1°C 41.2°F5.1°C 87% 2.5 mph WSW4.0 kmh WSW 4.5 mph7.2 kmh 30.31 in1026.4 mb 0.00 in0.0 mm 0.00 in0.0 mm 0.00 in0.0 mm
03:00 AM 44.8°F7.1°C 40.9°F4.9°C 86% 2.3 mph SW3.7 kmh SW 4.5 mph7.2 kmh 30.31 in1026.4 mb 0.00 in0.0 mm 0.00 in0.0 mm 0.00 in0.0 mm
02:55 AM 44.8°F7.1°C 40.9°F4.9°C 86% 1.7 mph SW2.7 kmh SW 3.8 mph6.1 kmh 30.32 in1026.8 mb 0.00 in0.0 mm 0.00 in0.0 mm 0.00 in0.0 mm
02:50 AM 44.8°F7.1°C 40.9°F4.9°C 86% 1.6 mph WSW2.6 kmh WSW 4.5 mph7.2 kmh 30.32 in1026.8 mb 0.00 in0.0 mm 0.00 in0.0 mm 0.00 in0.0 mm
02:45 AM 45.0°F7.2°C 41.0°F5.0°C 86% 1.9 mph SW3.1 kmh SW 4.5 mph7.2 kmh 30.32 in1026.8 mb 0.00 in0.0 mm 0.00 in0.0 mm 0.00 in0.0 mm
02:40 AM 45.0°F7.2°C 41.0°F5.0°C 86% 2.4 mph SW3.9 kmh SW 5.4 mph8.7 kmh 30.32 in1026.8 mb 0.00 in0.0 mm 0.00 in0.0 mm 0.00 in0.0 mm
02:35 AM 44.8°F7.1°C 40.9°F4.9°C 86% 3.1 mph SW5.0 kmh SW 6.0 mph9.7 kmh 30.32 in1026.8 mb 0.00 in0.0 mm 0.00 in0.0 mm 0.00 in0.0 mm
02:30 AM 44.8°F7.1°C 40.9°F4.9°C 86% 3.6 mph SW5.8 kmh SW 6.0 mph9.7 kmh 30.32 in1026.8 mb 0.00 in0.0 mm 0.00 in0.0 mm 0.00 in0.0 mm
02:25 AM 44.6°F7.0°C 40.7°F4.8°C 86% 4.0 mph WSW6.4 kmh WSW 7.6 mph12.2 kmh 30.32 in1026.8 mb 0.00 in0.0 mm 0.00 in0.0 mm 0.00 in0.0 mm
02:20 AM 44.6°F7.0°C 40.7°F4.8°C 86% 4.3 mph WSW6.9 kmh WSW 7.6 mph12.2 kmh 30.32 in1026.8 mb 0.00 in0.0 mm 0.00 in0.0 mm 0.00 in0.0 mm
02:15 AM 44.6°F7.0°C 40.4°F4.7°C 85% 3.9 mph WSW6.3 kmh WSW 6.9 mph11.1 kmh 30.32 in1026.8 mb 0.00 in0.0 mm 0.00 in0.0 mm 0.00 in0.0 mm
02:10 AM 44.8°F7.1°C 40.9°F4.9°C 86% 3.0 mph WSW4.8 kmh WSW 6.0 mph9.7 kmh 30.32 in1026.8 mb 0.00 in0.0 mm 0.00 in0.0 mm 0.00 in0.0 mm
02:05 AM 44.6°F7.0°C 40.7°F4.8°C 86% 3.6 mph SW5.8 kmh SW 7.6 mph12.2 kmh 30.33 in1027.1 mb 0.00 in0.0 mm 0.00 in0.0 mm 0.00 in0.0 mm
02:00 AM 44.6°F7.0°C 40.7°F4.8°C 86% 4.6 mph WSW7.4 kmh WSW 7.6 mph12.2 kmh 30.32 in1026.8 mb 0.00 in0.0 mm 0.00 in0.0 mm 0.00 in0.0 mm
01:55 AM 44.6°F7.0°C 40.7°F4.8°C 86% 4.5 mph WSW7.2 kmh WSW 7.6 mph12.2 kmh 30.32 in1026.8 mb 0.00 in0.0 mm 0.00 in0.0 mm 0.00 in0.0 mm
01:50 AM 44.4°F6.9°C 40.8°F4.9°C 87% 4.4 mph SW7.1 kmh SW 6.9 mph11.1 kmh 30.33 in1027.1 mb 0.00 in0.0 mm 0.00 in0.0 mm 0.00 in0.0 mm
01:45 AM 44.4°F6.9°C 40.8°F4.9°C 87% 4.3 mph SW6.9 kmh SW 6.9 mph11.1 kmh 30.33 in1027.1 mb 0.00 in0.0 mm 0.00 in0.0 mm 0.00 in0.0 mm
01:40 AM 44.4°F6.9°C 40.8°F4.9°C 87% 4.3 mph SW6.9 kmh SW 6.9 mph11.1 kmh 30.33 in1027.1 mb 0.00 in0.0 mm 0.00 in0.0 mm 0.00 in0.0 mm
01:35 AM 44.1°F6.7°C 40.1°F4.5°C 86% 4.7 mph SW7.6 kmh SW 7.6 mph12.2 kmh 30.33 in1027.1 mb 0.00 in0.0 mm 0.00 in0.0 mm 0.00 in0.0 mm
01:30 AM 44.1°F6.7°C 40.4°F4.7°C 87% 4.7 mph SW7.6 kmh SW 7.6 mph12.2 kmh 30.33 in1027.1 mb 0.00 in0.0 mm 0.00 in0.0 mm 0.00 in0.0 mm
01:25 AM 43.9°F6.6°C 40.0°F4.4°C 86% 4.7 mph WSW7.6 kmh WSW 7.6 mph12.2 kmh 30.33 in1027.1 mb 0.00 in0.0 mm 0.00 in0.0 mm 0.00 in0.0 mm
01:20 AM 43.7°F6.5°C 39.8°F4.3°C 86% 4.3 mph WSW6.9 kmh WSW 6.9 mph11.1 kmh 30.33 in1027.1 mb 0.00 in0.0 mm 0.00 in0.0 mm 0.00 in0.0 mm
01:15 AM 43.5°F6.4°C 39.6°F4.2°C 86% 3.1 mph SW5.0 kmh SW 6.0 mph9.7 kmh 30.33 in1027.1 mb 0.00 in0.0 mm 0.00 in0.0 mm 0.00 in0.0 mm
01:10 AM 43.5°F6.4°C 39.3°F4.1°C 85% 2.1 mph SW3.4 kmh SW 5.4 mph8.7 kmh 30.33 in1027.1 mb 0.00 in0.0 mm 0.00 in0.0 mm 0.00 in0.0 mm
01:05 AM 43.7°F6.5°C 39.5°F4.2°C 85% 1.4 mph NW2.3 kmh NW 5.4 mph8.7 kmh 30.33 in1027.1 mb 0.00 in0.0 mm 0.00 in0.0 mm 0.00 in0.0 mm
01:00 AM 44.1°F6.7°C 39.8°F4.3°C 85% 1.0 mph E1.6 kmh E 3.1 mph5.0 kmh 30.34 in1027.4 mb 0.00 in0.0 mm 0.00 in0.0 mm 0.00 in0.0 mm
12:55 AM 44.4°F6.9°C 40.5°F4.7°C 86% 1.1 mph S1.8 kmh S 2.2 mph3.5 kmh 30.33 in1027.1 mb 0.00 in0.0 mm 0.00 in0.0 mm 0.00 in0.0 mm
12:50 AM 44.6°F7.0°C 40.4°F4.7°C 85% 1.2 mph SSW1.9 kmh SSW 3.1 mph5.0 kmh 30.33 in1027.1 mb 0.00 in0.0 mm 0.00 in0.0 mm 0.00 in0.0 mm
12:45 AM 44.8°F7.1°C 40.9°F4.9°C 86% 1.2 mph SSW1.9 kmh SSW 3.1 mph5.0 kmh 30.33 in1027.1 mb 0.00 in0.0 mm 0.00 in0.0 mm 0.00 in0.0 mm
12:40 AM 45.0°F7.2°C 41.0°F5.0°C 86% 1.9 mph SW3.1 kmh SW 4.5 mph7.2 kmh 30.34 in1027.4 mb 0.00 in0.0 mm 0.00 in0.0 mm 0.00 in0.0 mm
12:35 AM 45.0°F7.2°C 41.3°F5.2°C 87% 2.4 mph WSW3.9 kmh WSW 4.5 mph7.2 kmh 30.34 in1027.4 mb 0.00 in0.0 mm 0.00 in0.0 mm 0.00 in0.0 mm
12:30 AM 45.0°F7.2°C 41.6°F5.3°C 88% 1.9 mph NW3.1 kmh NW 4.5 mph7.2 kmh 30.34 in1027.4 mb 0.00 in0.0 mm 0.00 in0.0 mm 0.00 in0.0 mm
12:25 AM 44.6°F7.0°C 41.6°F5.3°C 89% 1.9 mph W3.1 kmh W 5.4 mph8.7 kmh 30.34 in1027.4 mb 0.00 in0.0 mm 0.00 in0.0 mm 0.00 in0.0 mm
12:20 AM 44.6°F7.0°C 41.6°F5.3°C 89% 2.8 mph SSW4.5 kmh SSW 6.9 mph11.1 kmh 30.34 in1027.4 mb 0.00 in0.0 mm 0.00 in0.0 mm 0.00 in0.0 mm
12:15 AM 44.4°F6.9°C 42.0°F5.6°C 91% 3.4 mph S5.5 kmh S 7.6 mph12.2 kmh 30.34 in1027.4 mb 0.00 in0.0 mm 0.00 in0.0 mm 0.00 in0.0 mm
12:10 AM 43.7°F6.5°C 41.2°F5.1°C 91% 3.7 mph S6.0 kmh S 7.6 mph12.2 kmh 30.33 in1027.1 mb 0.00 in0.0 mm 0.00 in0.0 mm 0.00 in0.0 mm
12:05 AM 42.6°F5.9°C 40.2°F4.6°C 91% 4.0 mph S6.4 kmh S 6.9 mph11.1 kmh 30.33 in1027.1 mb 0.00 in0.0 mm 0.00 in0.0 mm 0.00 in0.0 mm
12:00 AM 42.6°F5.9°C 40.2°F4.6°C 91% 4.1 mph S6.6 kmh S 6.9 mph11.1 kmh 30.34 in1027.4 mb 0.00 in0.0 mm 0.00 in0.0 mm 0.00 in0.0 mm